Monday, October 16, 2017, 6:13 PM EDT
Back to Local

KACK, Nantucket Memorial Airport

Location: Nantucket, MA, United States Lat: 41.25
Local Time: 6:13 PM EDT (22:13 GMT) Lon: -70.067
Time Zone: US/Eastern Elev: 49 ft

Show me the last for .
Show Decoded

2017-10-16 17:53 METAR KACK 162153Z 02016G22KT 10SM OVC034 13/08 A2993 RMK AO2 SLP136 T01280078 =
2017-10-16 16:53 METAR KACK 162053Z 36013KT 10SM OVC031 13/09 A2996 RMK AO2 RAB07E20 SLP147 P0000
                 60000 T01330089 53019 =
2017-10-16 15:53 METAR KACK 161953Z 01014KT 10SM BKN030 14/09 A2992 RMK AO2 SLP132 T01390094 =
2017-10-16 14:53 METAR KACK 161853Z 36012KT 10SM FEW044 SCT120 15/11 A2990 RMK AO2 RAB1758E07
                 SLP126 P0000 T01500106 =
2017-10-16 13:53 METAR KACK 161753Z 35010KT 10SM FEW028 OVC045 17/12 A2991 RMK AO2 SLP128
                 T01670117 10194 20167 53004 =
2017-10-16 12:53 METAR KACK 161653Z 34010KT 10SM SCT047 SCT120 17/12 A2989 RMK AO2 SLP123
                 T01720117 =
2017-10-16 11:53 METAR KACK 161553Z 31010KT 10SM OVC042 17/12 A2991 RMK AO2 SLP127 T01720122 =
2017-10-16 10:53 METAR KACK 161453Z 29011KT 10SM BKN041 OVC090 17/14 A2990 RMK AO2 SLP124
                 T01670139 51021 =
2017-10-16 09:53 METAR KACK 161353Z 29009KT 10SM FEW050 OVC100 18/15 A2988 RMK AO2 SLP119
                 T01830150 =
2017-10-16 08:53 METAR KACK 161253Z 31010KT 10SM FEW034 BKN100 OVC110 19/16 A2986 RMK AO2 SLP110
                 T01890156 =
2017-10-16 08:04 METAR KACK 161204Z 28008KT 5SM BR SCT005 OVC014 18/18 A2984 RMK AO2 T01830183 =
2017-10-16 07:53 METAR KACK 161153Z 27011KT 3SM BR BKN005 OVC010 18/18 A2983 RMK AO2 CIG 004V008
                 SLP103 T01830183 10183 20178 53015 =
2017-10-16 07:33 METAR KACK 161133Z 26013KT 5SM BR BKN008 BKN020 OVC028 18/18 A2982 RMK AO2 CIG
                 005V013 T01830183 =
2017-10-16 07:12 METAR KACK 161112Z 24011KT 4SM BR SCT011 OVC030 18/18 A2981 RMK AO2 T01830183 $
                 =
2017-10-16 06:53 METAR KACK 161053Z 25011KT 5SM BR BKN011 OVC028 18/18 A2980 RMK AO2 SLP092
                 T01780178 $ =
2017-10-16 05:53 METAR KACK 160953Z 23014KT 6SM BR SCT015 OVC021 18/18 A2980 RMK AO2 SLP089
                 T01830183 $ =
2017-10-16 05:19 METAR KACK 160919Z AUTO 22012KT 6SM BR SCT010 OVC020 18/18 A2979 RMK AO2
                 T01830183 TSNO $ =
2017-10-16 05:12 METAR KACK 160912Z AUTO 22014KT 6SM BR BKN010 OVC020 18/18 A2979 RMK AO2 CIG
                 008V013 T01830183 TSNO $ =
2017-10-16 04:53 METAR KACK 160853Z AUTO 22014KT 6SM BR OVC008 18/18 A2979 RMK AO2 CIG 006V010
                 SLP087 T01830183 56010 TSNO $ =
2017-10-16 03:53 METAR KACK 160753Z AUTO 22013KT 6SM BR OVC006 18/18 A2979 RMK AO2 SLP089
                 T01830183 TSNO $ =
2017-10-16 02:53 METAR KACK 160653Z AUTO 23017KT 7SM OVC006 18/18 A2980 RMK AO2 PK WND 23026/0631
                 SLP092 T01830183 TSNO $ =
2017-10-16 01:53 METAR KACK 160553Z AUTO 22014KT 7SM OVC008 18/18 A2982 RMK AO2 PK WND 24026/0504
                 SLP098 T01830183 10183 20178 58008 TSNO $ =
2017-10-16 01:22 METAR KACK 160522Z AUTO 23017G24KT 8SM OVC009 18/18 A2983 RMK AO2 PK WND
                 24026/0504 CIG 008V012 T01830178 TSNO $ =
2017-10-16 00:53 METAR KACK 160453Z AUTO 23019KT 9SM OVC013 18/18 A2983 RMK AO2 PK WND 23029/0406
                 SLP103 T01830178 402000156 TSNO $ =
2017-10-15 23:53 METAR KACK 160353Z AUTO 22019KT 10SM OVC013 18/18 A2984 RMK AO2 PK WND
                 22028/0308 SLP103 T01830178 TSNO $ =
2017-10-15 22:53 METAR KACK 160253Z AUTO 22020G27KT 10SM OVC013 18/18 A2984 RMK AO2 PK WND
                 23029/0215 SLP106 T01830178 58011 TSNO $ =
2017-10-15 21:53 METAR KACK 160153Z AUTO 22019KT 10SM OVC011 18/18 A2986 RMK AO2 PK WND
                 22029/0058 SLP111 T01830178 TSNO $ =
2017-10-15 20:53 METAR KACK 160053Z 22018G27KT 10SM FEW007 OVC012 18/18 A2987 RMK AO2 PK WND
                 22027/0032 SLP113 T01830183 $ =
2017-10-15 20:39 METAR KACK 160039Z 22019G27KT 10SM SCT007 OVC012 18/18 A2987 RMK AO2 PK WND
                 22027/0032 T01780178 $ =
2017-10-15 19:53 METAR KACK 152353Z 22018KT 7SM BKN005 OVC010 18/18 A2988 RMK AO2 PK WND
                 22027/2331 SLP117 T01780178 10189 20178 58006 $ =
2017-10-15 19:33 METAR KACK 152333Z 22018G27KT 9SM SCT006 OVC009 18/18 A2988 RMK AO2 PK WND
                 22027/2331 T01780178 $ =
2017-10-15 18:53 METAR KACK 152253Z 22020G25KT 4SM BR OVC002 18/18 A2989 RMK AO2 SLP123 T01780178
                 $ =
2017-10-15 18:48 METAR KACK 152248Z 22019G24KT 1 1/2SM R24/6000VP6000FT BR OVC002 18/18 A2989 RMK
                 AO2 $ =

Support USWX by starting your Amazon purchase here.